Time;durP1;ratioP1;P1;durP2;ratioP2;P2;SDS_P1;SDS_P2;PMS_P1;PMS_P2;Temp;Humidity;BMP_temperature;BMP_pressure;BME280_temperature;BME280_humidity;BME280_pressure;Samples;Min_cycle;Max_cycle;Signal;HPM_P1;HPM_P2
2021/08/22 00:00:30;;;;;;;7.53;3.28;;;;;;;15.18;80.69;100997.09;5055407;28;20037;-84
2021/08/22 00:02:59;;;;;;;4.03;2.17;;;;;;;15.18;80.20;100991.50;5056108;28;20036;-84
2021/08/22 00:05:27;;;;;;;4.88;1.95;;;;;;;15.19;80.25;101000.69;5058161;28;20488;-86
2021/08/22 00:07:54;;;;;;;3.72;1.80;;;;;;;15.14;80.08;101004.56;5039890;28;20431;-84
2021/08/22 00:10:23;;;;;;;2.92;2.30;;;;;;;15.08;80.52;101006.06;5071348;28;20665;-84
2021/08/22 00:12:51;;;;;;;4.78;2.13;;;;;;;14.96;80.91;101006.22;5056730;28;20050;-85
2021/08/22 00:15:18;;;;;;;4.40;2.08;;;;;;;14.95;80.97;101003.81;5060336;28;20079;-84
2021/08/22 00:17:45;;;;;;;8.27;2.55;;;;;;;14.94;80.93;101010.53;5042070;28;20049;-85
2021/08/22 00:20:12;;;;;;;4.38;2.28;;;;;;;14.94;81.15;101007.75;5074479;28;20090;-83
2021/08/22 00:22:43;;;;;;;3.78;2.67;;;;;;;14.90;80.95;101018.84;5053029;28;20045;-83
2021/08/22 00:25:10;;;;;;;4.78;2.30;;;;;;;14.85;81.28;101021.13;5056620;28;20076;-86
2021/08/22 00:27:37;;;;;;;5.93;2.47;;;;;;;14.80;81.49;101016.63;5074768;28;20755;-84
2021/08/22 00:30:05;;;;;;;5.93;2.08;;;;;;;14.77;81.49;101017.41;5056716;28;20047;-88
2021/08/22 00:32:31;;;;;;;5.53;2.00;;;;;;;14.76;81.44;101018.56;5042522;28;20127;-84
2021/08/22 00:34:58;;;;;;;5.38;3.00;;;;;;;14.72;81.70;101012.09;5054857;28;20059;-84
2021/08/22 00:37:29;;;;;;;5.35;2.15;;;;;;;14.74;81.54;101020.09;5036822;28;20041;-84
2021/08/22 00:39:57;;;;;;;4.65;2.83;;;;;;;14.75;81.53;101027.25;5043465;28;20041;-84
2021/08/22 00:42:24;;;;;;;4.80;2.08;;;;;;;14.73;81.71;101024.84;5056528;28;20044;-84
2021/08/22 00:44:51;;;;;;;4.10;1.98;;;;;;;14.74;81.77;101026.47;5055193;28;20052;-84
2021/08/22 00:47:20;;;;;;;5.90;2.45;;;;;;;14.73;81.68;101024.84;5061468;28;20055;-85
2021/08/22 00:49:47;;;;;;;3.75;2.38;;;;;;;14.70;81.68;101042.31;5036953;28;20057;-84
2021/08/22 00:52:14;;;;;;;5.03;2.05;;;;;;;14.61;82.06;101034.16;5046054;28;20043;-85
2021/08/22 00:54:42;;;;;;;10.38;3.13;;;;;;;14.58;82.14;101034.91;5056692;28;20041;-85
2021/08/22 00:57:10;;;;;;;5.72;2.75;;;;;;;14.56;82.25;101044.81;5030467;28;20059;-84
2021/08/22 00:59:38;;;;;;;5.28;3.40;;;;;;;14.53;82.48;101045.53;5039096;28;20545;-85
2021/08/22 01:02:06;;;;;;;5.75;3.03;;;;;;;14.52;82.34;101049.47;5060447;28;20649;-85
2021/08/22 01:04:51;;;;;;;4.63;3.13;;;;;;;14.43;82.76;101038.53;5065345;28;20037;-84
2021/08/22 01:07:31;;;;;;;8.20;2.90;;;;;;;14.44;82.83;101051.31;5056548;28;20048;-84
2021/08/22 01:09:58;;;;;;;9.63;2.95;;;;;;;14.44;82.56;101051.31;5062435;28;20065;-84
2021/08/22 01:12:30;;;;;;;7.18;3.83;;;;;;;14.45;82.56;101060.47;5047789;28;20051;-85
2021/08/22 01:15:06;;;;;;;8.25;2.67;;;;;;;14.40;82.83;101066.34;5046459;28;20057;-85
2021/08/22 01:17:39;;;;;;;11.05;3.00;;;;;;;14.37;82.84;101061.47;5027549;28;20419;-84
2021/08/22 01:20:26;;;;;;;4.40;2.78;;;;;;;14.37;83.31;101064.28;5040464;28;20059;-86
2021/08/22 01:22:54;;;;;;;8.82;3.85;;;;;;;14.37;82.99;101058.69;5066948;28;20051;-85
2021/08/22 01:25:21;;;;;;;8.15;3.65;;;;;;;14.38;83.02;101063.06;5053902;28;20037;-84
2021/08/22 01:27:49;;;;;;;5.40;3.45;;;;;;;14.36;82.93;101066.25;5054382;28;20061;-82
2021/08/22 01:30:18;;;;;;;6.63;3.28;;;;;;;14.31;83.12;101079.59;5071160;28;20110;-84
2021/08/22 01:32:47;;;;;;;8.45;3.55;;;;;;;14.25;83.27;101076.28;5065674;28;20119;-82
2021/08/22 01:35:18;;;;;;;7.72;4.03;;;;;;;14.26;83.45;101077.09;5056002;28;20086;-83
2021/08/22 01:37:46;;;;;;;8.73;4.95;;;;;;;14.25;83.46;101084.66;5047117;28;20045;-82
2021/08/22 01:40:17;;;;;;;9.38;5.43;;;;;;;14.24;83.37;101083.03;5059698;28;20071;-84
2021/08/22 01:42:46;;;;;;;11.00;4.82;;;;;;;14.23;83.53;101083.38;5044809;28;20485;-83
2021/08/22 01:45:15;;;;;;;10.05;4.82;;;;;;;14.20;83.54;101084.09;5040034;28;20041;-85
2021/08/22 01:47:44;;;;;;;7.82;4.38;;;;;;;14.15;83.70;101076.03;5060787;28;20043;-83
2021/08/22 01:50:12;;;;;;;9.68;3.83;;;;;;;14.15;83.78;101087.16;5052278;28;20467;-83
2021/08/22 01:52:39;;;;;;;7.93;3.97;;;;;;;14.15;83.73;101076.84;5068384;28;20043;-83
2021/08/22 01:55:07;;;;;;;5.70;3.67;;;;;;;14.16;83.68;101091.59;5054448;28;20040;-84
2021/08/22 01:57:38;;;;;;;9.13;4.45;;;;;;;14.13;83.90;101089.53;5072470;28;20484;-82
2021/08/22 02:00:06;;;;;;;8.18;3.72;;;;;;;14.11;83.82;101080.72;5051231;28;20044;-86
2021/08/22 02:02:33;;;;;;;8.15;3.90;;;;;;;14.07;83.86;101086.19;5069501;28;20036;-85
2021/08/22 02:05:04;;;;;;;13.98;4.75;;;;;;;14.03;84.02;101088.88;5072654;28;20048;-84
2021/08/22 02:07:33;;;;;;;8.73;4.20;;;;;;;14.03;84.06;101097.22;5061221;28;20048;-84
2021/08/22 02:10:06;;;;;;;10.15;4.72;;;;;;;14.04;84.13;101103.63;5072458;28;20048;-85
2021/08/22 02:12:34;;;;;;;10.23;5.05;;;;;;;14.06;83.83;101104.06;5049872;28;20135;-85
2021/08/22 02:15:13;;;;;;;11.45;5.60;;;;;;;14.03;84.35;101111.16;5055470;28;20052;-85
2021/08/22 02:18:00;;;;;;;12.27;5.53;;;;;;;13.99;84.74;101118.63;5047486;28;20131;-85
2021/08/22 02:20:28;;;;;;;11.27;5.75;;;;;;;14.03;84.61;101121.50;5046798;28;20072;-85
2021/08/22 02:22:55;;;;;;;11.48;6.68;;;;;;;14.06;84.62;101114.41;5057577;28;20127;-85
2021/08/22 02:25:27;;;;;;;12.85;6.43;;;;;;;14.06;84.48;101129.13;5071242;28;20395;-86
2021/08/22 02:27:59;;;;;;;18.58;7.57;;;;;;;13.99;84.87;101123.38;5038428;28;20097;-86
2021/08/22 02:30:35;;;;;;;15.57;6.90;;;;;;;14.00;85.06;101122.22;5072253;28;20043;-85
2021/08/22 02:33:06;;;;;;;18.10;8.35;;;;;;;14.02;85.00;101125.44;5037833;28;20408;-85
2021/08/22 02:35:33;;;;;;;12.73;7.90;;;;;;;14.02;84.78;101123.47;5036054;28;20495;-85
2021/08/22 02:38:00;;;;;;;9.18;6.55;;;;;;;14.02;84.73;101133.78;5055443;28;20077;-85
2021/08/22 02:40:27;;;;;;;14.52;7.93;;;;;;;14.02;84.62;101137.41;5049686;28;20404;-85
2021/08/22 02:42:55;;;;;;;14.75;8.27;;;;;;;14.02;84.73;101134.63;5070920;28;20067;-85
2021/08/22 02:45:22;;;;;;;15.07;7.40;;;;;;;14.00;84.65;101134.13;5050240;28;20056;-85
2021/08/22 02:47:56;;;;;;;14.82;6.15;;;;;;;13.99;84.70;101131.72;5054161;28;20060;-84
2021/08/22 02:50:24;;;;;;;13.70;6.80;;;;;;;13.94;84.90;101137.56;5067204;28;20095;-85
2021/08/22 02:52:51;;;;;;;16.85;7.55;;;;;;;13.94;85.09;101137.56;5054709;28;20037;-85
2021/08/22 02:55:18;;;;;;;15.73;7.18;;;;;;;13.91;85.18;101144.66;5061592;28;20049;-85
2021/08/22 02:57:45;;;;;;;19.75;8.65;;;;;;;13.92;85.10;101154.63;5072335;28;20484;-84
2021/08/22 03:00:12;;;;;;;19.42;8.05;;;;;;;13.88;85.27;101156.50;5038140;28;20048;-87
2021/08/22 03:02:40;;;;;;;13.50;7.50;;;;;;;13.90;85.15;101147.78;5059734;28;20369;-85
2021/08/22 03:05:07;;;;;;;13.95;7.63;;;;;;;13.90;85.26;101156.94;5037968;28;20399;-87
2021/08/22 03:07:34;;;;;;;13.00;7.97;;;;;;;13.89;85.28;101151.75;5072216;28;20689;-85
2021/08/22 03:10:01;;;;;;;13.10;6.65;;;;;;;13.86;85.64;101158.84;5067008;28;20072;-85
2021/08/22 03:12:30;;;;;;;17.00;6.50;;;;;;;13.86;85.75;101167.19;5053796;28;20044;-85
2021/08/22 03:14:57;;;;;;;15.70;7.05;;;;;;;13.84;85.79;101165.94;5053556;28;20059;-83
2021/08/22 03:17:24;;;;;;;14.07;6.38;;;;;;;13.88;85.80;101164.84;5064176;28;20131;-85
2021/08/22 03:19:52;;;;;;;14.88;6.25;;;;;;;13.92;85.83;101162.19;5070977;28;20044;-85
2021/08/22 03:22:19;;;;;;;13.27;7.13;;;;;;;13.92;85.58;101163.00;5055983;28;20381;-85
2021/08/22 03:24:46;;;;;;;10.10;5.97;;;;;;;13.92;85.94;101171.34;5037243;28;20072;-85
2021/08/22 03:27:13;;;;;;;12.60;6.55;;;;;;;13.95;85.85;101169.81;5069640;28;20071;-86
2021/08/22 03:29:39;;;;;;;12.13;6.15;;;;;;;13.97;86.03;101171.06;5038068;28;20057;-85
2021/08/22 03:32:07;;;;;;;17.10;6.97;;;;;;;14.02;86.08;101176.38;5055061;28;20135;-84
2021/08/22 03:34:34;;;;;;;9.15;5.45;;;;;;;14.04;86.06;101176.00;5050064;28;20054;-84
2021/08/22 03:37:01;;;;;;;9.93;5.57;;;;;;;14.06;86.15;101173.66;5055870;28;20535;-85
2021/08/22 03:39:28;;;;;;;10.25;6.00;;;;;;;14.05;86.17;101174.84;5069313;28;20123;-84
2021/08/22 03:41:55;;;;;;;12.23;6.15;;;;;;;14.04;86.05;101174.03;5071242;28;20487;-84
2021/08/22 03:44:23;;;;;;;16.25;5.68;;;;;;;14.07;86.23;101158.59;5044724;28;20139;-86
2021/08/22 03:46:50;;;;;;;9.23;5.95;;;;;;;14.06;86.15;101168.09;5070004;28;20037;-84
2021/08/22 03:49:17;;;;;;;7.63;5.07;;;;;;;14.02;86.40;101172.78;5057053;28;20040;-84
2021/08/22 03:51:43;;;;;;;11.77;5.75;;;;;;;14.03;86.33;101174.41;5038675;28;20045;-84
2021/08/22 03:54:10;;;;;;;11.32;5.63;;;;;;;14.07;86.22;101178.06;5045227;28;20055;-84
2021/08/22 03:56:37;;;;;;;8.60;5.47;;;;;;;14.08;85.72;101184.47;5071211;28;20041;-84
2021/08/22 03:59:07;;;;;;;9.50;6.75;;;;;;;14.10;86.10;101179.34;5044003;28;20055;-85
2021/08/22 04:01:36;;;;;;;12.75;5.95;;;;;;;14.07;86.08;101185.63;5057198;28;20142;-85
2021/08/22 04:04:05;;;;;;;7.65;4.85;;;;;;;14.08;85.99;101184.47;5072152;28;20540;-86
2021/08/22 04:06:33;;;;;;;13.43;5.90;;;;;;;14.08;86.00;101181.66;5070229;28;20047;-84
2021/08/22 04:09:01;;;;;;;12.05;5.20;;;;;;;14.09;86.18;101183.28;5044896;28;20177;-84
2021/08/22 04:11:28;;;;;;;13.15;5.95;;;;;;;14.15;85.79;101187.41;5053235;28;20392;-84
2021/08/22 04:13:55;;;;;;;11.13;6.10;;;;;;;14.14;85.88;101191.38;5054409;28;20052;-84
2021/08/22 04:16:22;;;;;;;9.25;5.57;;;;;;;14.10;86.05;101185.72;5056683;28;20087;-84
2021/08/22 04:18:50;;;;;;;12.90;7.20;;;;;;;14.09;86.27;101198.00;5054156;28;20036;-84
2021/08/22 04:21:17;;;;;;;14.88;7.60;;;;;;;14.14;85.95;101199.75;5053009;28;20143;-83
2021/08/22 04:23:44;;;;;;;13.73;7.50;;;;;;;14.14;86.03;101200.53;5070206;28;20463;-84
2021/08/22 04:26:10;;;;;;;19.88;7.78;;;;;;;14.16;85.89;101201.00;5050871;28;20048;-86
2021/08/22 04:28:37;;;;;;;16.35;7.72;;;;;;;14.20;86.00;101209.41;5069754;28;20123;-85
2021/08/22 04:31:04;;;;;;;14.23;7.05;;;;;;;14.18;85.83;101208.97;5044684;28;20063;-85
2021/08/22 04:33:34;;;;;;;18.52;7.38;;;;;;;14.17;85.96;101212.91;5073534;28;20123;-84
2021/08/22 04:36:02;;;;;;;15.98;8.90;;;;;;;14.12;85.98;101207.63;5057877;28;20127;-84
2021/08/22 04:38:28;;;;;;;11.23;7.47;;;;;;;14.11;86.01;101214.38;5062232;28;20068;-84
2021/08/22 04:40:55;;;;;;;14.65;7.13;;;;;;;14.12;85.99;101213.19;5074173;28;20044;-84
2021/08/22 04:43:24;;;;;;;14.60;7.72;;;;;;;14.11;86.06;101217.94;5059822;28;20044;-84
2021/08/22 04:45:51;;;;;;;19.48;8.20;;;;;;;14.11;85.87;101226.28;5062858;28;20064;-84
2021/08/22 04:48:18;;;;;;;15.57;7.55;;;;;;;14.08;86.03;101220.66;5060794;28;20048;-84
2021/08/22 04:50:45;;;;;;;13.88;7.90;;;;;;;14.09;85.85;101216.69;5056903;28;20579;-83
2021/08/22 04:53:11;;;;;;;16.00;8.18;;;;;;;14.08;85.85;101223.44;5074373;28;20047;-83
2021/08/22 04:55:38;;;;;;;15.75;8.73;;;;;;;14.11;85.78;101217.16;5074480;28;20075;-84
2021/08/22 04:58:05;;;;;;;16.70;8.10;;;;;;;14.08;86.05;101217.88;5067092;28;20098;-84
2021/08/22 05:00:33;;;;;;;14.43;7.25;;;;;;;14.09;85.96;101219.47;5074336;28;20036;-83
2021/08/22 05:03:00;;;;;;;11.65;6.82;;;;;;;14.09;86.09;101223.06;5074393;28;20143;-84
2021/08/22 05:05:27;;;;;;;16.23;7.07;;;;;;;14.08;86.17;101227.03;5073962;28;20067;-83
2021/08/22 05:07:57;;;;;;;12.10;6.90;;;;;;;14.05;86.16;101227.75;5066419;28;20036;-84
2021/08/22 05:10:24;;;;;;;15.98;6.72;;;;;;;14.10;86.47;101229.44;5074257;28;20041;-84
2021/08/22 05:12:51;;;;;;;12.35;6.55;;;;;;;14.11;86.26;101231.09;5073465;28;20470;-84
2021/08/22 05:15:18;;;;;;;13.38;6.75;;;;;;;14.13;85.98;101239.88;5055013;28;20056;-84
2021/08/22 05:17:48;;;;;;;10.80;6.13;;;;;;;14.11;86.38;101242.22;5050712;28;20056;-84
2021/08/22 05:20:15;;;;;;;17.10;7.30;;;;;;;14.14;86.14;101247.06;5055546;28;20068;-85
2021/08/22 05:22:41;;;;;;;11.85;6.47;;;;;;;14.15;86.21;101254.25;5038914;28;20049;-84
2021/08/22 05:25:08;;;;;;;17.77;7.60;;;;;;;14.16;86.37;101255.88;5071573;28;20048;-85
2021/08/22 05:27:35;;;;;;;21.48;8.48;;;;;;;14.16;86.33;101250.31;5068872;28;20067;-83
2021/08/22 05:30:03;;;;;;;15.95;7.40;;;;;;;14.15;86.25;101260.63;5056335;28;20135;-84
2021/08/22 05:32:30;;;;;;;16.20;7.78;;;;;;;14.15;86.41;101266.19;5053570;28;20044;-83
2021/08/22 05:34:56;;;;;;;17.60;8.40;;;;;;;14.14;86.47;101270.13;5039748;28;20043;-83
2021/08/22 05:37:23;;;;;;;16.80;7.55;;;;;;;14.14;86.56;101272.91;5073224;28;20093;-83
2021/08/22 05:39:50;;;;;;;25.80;8.70;;;;;;;14.11;86.46;101278.41;5056379;28;20131;-83
2021/08/22 05:42:17;;;;;;;14.80;9.45;;;;;;;14.15;86.62;101282.09;5072337;28;20123;-84
2021/08/22 05:44:44;;;;;;;19.58;8.45;;;;;;;14.14;86.75;101278.50;5074401;28;20051;-83
2021/08/22 05:47:10;;;;;;;17.80;8.07;;;;;;;14.16;86.67;101289.28;5065278;28;20044;-83
2021/08/22 05:49:39;;;;;;;15.23;6.70;;;;;;;14.18;86.99;101293.34;5072708;28;20127;-84
2021/08/22 05:52:07;;;;;;;15.85;8.10;;;;;;;14.19;86.97;101289.38;5056009;28;20036;-83
2021/08/22 05:54:35;;;;;;;8.65;6.20;;;;;;;14.23;87.27;101300.63;5048170;28;20102;-83
2021/08/22 05:57:02;;;;;;;11.13;5.85;;;;;;;14.27;87.33;101302.31;5073056;28;20051;-83
2021/08/22 05:59:29;;;;;;;12.07;5.82;;;;;;;14.32;87.26;101310.44;5072429;28;20131;-82
2021/08/22 06:01:56;;;;;;;11.40;5.57;;;;;;;14.39;87.14;101310.66;5059486;28;20044;-84
2021/08/22 06:04:23;;;;;;;13.25;5.20;;;;;;;14.40;87.13;101311.47;5072752;28;20127;-85
2021/08/22 06:06:49;;;;;;;12.98;5.35;;;;;;;14.43;87.09;101316.31;5070223;28;20468;-85
2021/08/22 06:09:16;;;;;;;13.48;6.43;;;;;;;14.47;87.08;101317.22;5032455;28;20204;-83
2021/08/22 06:11:44;;;;;;;8.02;4.63;;;;;;;14.53;86.96;101321.38;5036440;28;20049;-83
2021/08/22 06:14:11;;;;;;;12.82;4.63;;;;;;;14.57;86.81;101316.69;5061532;28;20514;-82
2021/08/22 06:16:37;;;;;;;9.40;4.78;;;;;;;14.58;87.02;101321.09;5077748;28;20139;-83
2021/08/22 06:19:04;;;;;;;7.05;4.72;;;;;;;14.61;86.96;101317.59;5069413;28;20097;-83
2021/08/22 06:21:31;;;;;;;10.15;4.10;;;;;;;14.61;86.90;101318.41;5072964;28;20048;-82
2021/08/22 06:24:01;;;;;;;9.60;4.13;;;;;;;14.66;86.89;101331.28;5057376;28;20040;-81
2021/08/22 06:26:30;;;;;;;8.70;4.13;;;;;;;14.72;86.56;101334.59;5081099;28;20032;-83
2021/08/22 06:28:56;;;;;;;8.43;4.93;;;;;;;14.75;86.59;101331.06;5062641;28;20394;-84
2021/08/22 06:31:24;;;;;;;10.57;4.28;;;;;;;14.79;86.48;101340.34;5060781;28;20122;-83
2021/08/22 06:33:51;;;;;;;7.28;4.20;;;;;;;14.81;86.42;101338.81;5043433;28;20135;-83
2021/08/22 06:36:17;;;;;;;11.40;4.03;;;;;;;14.84;86.56;101345.66;5048364;28;20132;-84
2021/08/22 06:38:44;;;;;;;7.07;3.63;;;;;;;14.84;86.42;101345.66;5078314;28;20036;-85
2021/08/22 06:41:11;;;;;;;9.90;3.53;;;;;;;14.86;86.36;101340.53;5092223;28;20488;-85
2021/08/22 06:43:38;;;;;;;8.15;3.97;;;;;;;14.90;86.35;101347.84;5073226;28;20056;-83
2021/08/22 06:46:05;;;;;;;7.13;3.83;;;;;;;14.95;86.02;101360.69;5078716;28;20051;-91
2021/08/22 06:48:32;;;;;;;7.05;3.53;;;;;;;14.95;86.19;101361.50;5041591;28;20041;-92
2021/08/22 06:51:01;;;;;;;9.70;3.55;;;;;;;14.99;86.19;101359.59;5035048;28;20079;-91
2021/08/22 06:53:28;;;;;;;8.10;3.50;;;;;;;15.02;86.08;101361.66;5060114;28;20036;-90
2021/08/22 06:55:55;;;;;;;7.13;3.85;;;;;;;15.03;86.06;101363.31;5046212;28;20053;-91
2021/08/22 06:58:23;;;;;;;7.40;2.88;;;;;;;15.05;86.29;101369.31;5071055;28;20076;-91
2021/08/22 07:00:49;;;;;;;5.18;3.00;;;;;;;15.10;86.14;101371.84;5036388;28;20086;-91
2021/08/22 07:03:16;;;;;;;7.47;3.03;;;;;;;15.14;86.01;101372.72;5053427;28;20058;-91
2021/08/22 07:05:44;;;;;;;4.35;3.05;;;;;;;15.21;86.36;101386.03;5036249;28;20049;-90
2021/08/22 07:08:12;;;;;;;12.40;4.13;;;;;;;15.29;86.14;101384.25;5037181;28;20090;-90
2021/08/22 07:10:39;;;;;;;4.55;3.13;;;;;;;15.31;86.28;101379.91;5034562;28;20127;-90
2021/08/22 07:13:06;;;;;;;7.00;2.45;;;;;;;15.35;86.10;101383.63;5064878;28;20131;-89
2021/08/22 07:15:34;;;;;;;9.15;3.20;;;;;;;15.34;86.00;101383.97;5036753;28;20541;-91
2021/08/22 07:18:01;;;;;;;8.05;3.88;;;;;;;15.47;85.98;101388.28;5060874;28;20481;-91
2021/08/22 07:20:28;;;;;;;4.57;2.63;;;;;;;15.67;86.26;101387.19;5036848;28;20053;-90
2021/08/22 07:22:55;;;;;;;8.02;3.03;;;;;;;15.89;85.85;101389.25;5037053;28;20040;-91
2021/08/22 07:25:22;;;;;;;5.45;2.72;;;;;;;16.05;85.92;101398.41;5049039;28;20044;-90
2021/08/22 07:27:49;;;;;;;5.32;2.50;;;;;;;16.08;85.20;101403.25;5065241;28;20051;-90
2021/08/22 07:30:16;;;;;;;6.57;2.60;;;;;;;16.00;84.99;101401.47;5049488;28;20041;-94
2021/08/22 07:32:43;;;;;;;5.80;3.28;;;;;;;15.98;84.85;101403.84;5071435;28;20543;-92
2021/08/22 07:35:11;;;;;;;4.90;2.72;;;;;;;15.94;84.85;101407.75;5072307;28;20040;-93
2021/08/22 07:37:37;;;;;;;7.40;2.70;;;;;;;15.97;84.67;101407.78;5038494;28;20064;-92
2021/08/22 07:40:06;;;;;;;8.23;3.10;;;;;;;16.02;84.61;101410.28;5034945;28;20040;-96
2021/08/22 07:42:33;;;;;;;6.10;2.20;;;;;;;16.08;84.50;101427.59;5051069;28;20063;-92
2021/08/22 07:45:00;;;;;;;4.75;2.35;;;;;;;16.14;84.24;101424.16;5051017;28;20037;-91
2021/08/22 07:47:27;;;;;;;4.63;2.47;;;;;;;16.22;84.15;101425.09;5059066;28;20127;-92
2021/08/22 07:49:54;;;;;;;8.20;3.00;;;;;;;16.26;83.78;101424.00;5037887;28;20331;-94
2021/08/22 07:52:24;;;;;;;8.95;3.30;;;;;;;16.31;83.69;101429.28;5055169;28;20053;-93
2021/08/22 07:54:51;;;;;;;3.80;1.98;;;;;;;16.35;83.69;101437.75;5072461;28;20076;-93
2021/08/22 07:57:18;;;;;;;4.25;2.78;;;;;;;16.41;83.81;101433.50;5048049;28;20130;-93
2021/08/22 07:59:45;;;;;;;5.03;2.65;;;;;;;16.53;83.64;101440.94;5038903;28;20381;-92
2021/08/22 08:02:12;;;;;;;3.58;2.60;;;;;;;16.63;83.36;101451.50;5072220;28;20127;-91
2021/08/22 08:04:39;;;;;;;4.75;1.88;;;;;;;16.68;83.26;101442.84;5049500;28;20087;-92
2021/08/22 08:07:06;;;;;;;5.70;2.30;;;;;;;16.72;83.28;101452.13;5046383;28;20484;-91
2021/08/22 08:09:33;;;;;;;6.15;2.42;;;;;;;16.76;82.94;101455.81;5050110;28;20063;-86
2021/08/22 08:12:00;;;;;;;2.90;2.42;;;;;;;16.78;83.11;101459.84;5020960;28;20045;-86
2021/08/22 08:14:27;;;;;;;2.60;2.15;;;;;;;16.81;82.82;101452.69;5067872;28;20089;-86
2021/08/22 08:16:54;;;;;;;6.97;3.28;;;;;;;16.79;82.71;101460.63;5064797;28;20063;-85
2021/08/22 08:19:21;;;;;;;7.93;2.80;;;;;;;16.77;82.74;101465.78;5066040;28;20048;-86
2021/08/22 08:21:52;;;;;;;8.27;2.47;;;;;;;16.77;82.86;101457.41;5053745;28;20044;-86
2021/08/22 08:24:18;;;;;;;4.30;2.95;;;;;;;16.81;83.04;101466.69;5058296;28;20044;-87
2021/08/22 08:26:45;;;;;;;5.88;2.75;;;;;;;16.87;82.81;101465.19;5073453;28;20388;-85
2021/08/22 08:29:12;;;;;;;4.47;2.35;;;;;;;16.89;82.92;101472.03;5072053;28;20094;-85
2021/08/22 08:31:39;;;;;;;7.32;3.28;;;;;;;16.86;82.92;101475.59;5073299;28;20032;-85
2021/08/22 08:34:05;;;;;;;4.50;2.85;;;;;;;16.87;83.00;101470.78;5035969;28;20062;-86
2021/08/22 08:36:33;;;;;;;5.82;2.92;;;;;;;16.87;82.86;101479.16;5046978;28;20062;-87
2021/08/22 08:39:00;;;;;;;4.65;2.90;;;;;;;16.86;83.21;101472.78;5072999;28;20044;-87
2021/08/22 08:41:26;;;;;;;5.95;2.70;;;;;;;16.84;83.36;101485.50;5048561;28;20156;-86
2021/08/22 08:43:55;;;;;;;6.90;2.97;;;;;;;16.81;83.14;101483.47;5048848;28;20140;-86
2021/08/22 08:46:40;;;;;;;6.03;2.67;;;;;;;16.80;83.09;101484.63;5062660;28;20095;-86
2021/08/22 08:49:28;;;;;;;4.80;2.78;;;;;;;16.79;83.05;101488.59;5069576;28;20045;-86
2021/08/22 08:52:04;;;;;;;7.32;2.78;;;;;;;16.79;83.26;101491.38;5038181;28;20044;-87
2021/08/22 08:54:36;;;;;;;7.07;3.13;;;;;;;16.92;83.28;101498.44;5072784;28;20044;-87
2021/08/22 08:57:04;;;;;;;2.95;2.38;;;;;;;17.24;83.56;101494.25;5064449;28;20044;-86
2021/08/22 08:59:35;;;;;;;4.47;2.65;;;;;;;17.45;83.12;101505.84;5058102;28;20044;-86
2021/08/22 09:02:02;;;;;;;2.87;2.20;;;;;;;17.49;82.79;101509.53;5067827;28;20033;-87
2021/08/22 09:04:41;;;;;;;4.85;2.20;;;;;;;17.46;82.47;101501.88;5072044;28;20375;-86
2021/08/22 09:07:46;;;;;;;8.35;3.28;;;;;;;17.36;82.58;101499.69;5070690;28;20132;-87
2021/08/22 09:10:51;;;;;;;5.03;2.55;;;;;;;17.34;82.57;101507.63;5039641;28;20040;-88
2021/08/22 09:13:39;;;;;;;5.25;2.33;;;;;;;17.39;82.51;101507.34;5060948;28;20140;-86
2021/08/22 09:16:21;;;;;;;5.13;2.53;;;;;;;17.46;82.13;101501.88;5065227;28;20044;-87
2021/08/22 09:19:26;;;;;;;6.05;2.30;;;;;;;17.48;82.00;101505.09;5045371;28;20105;-85
2021/08/22 09:22:30;;;;;;;3.65;2.45;;;;;;;17.37;81.39;101515.28;5052827;28;20139;-86
2021/08/22 09:25:34;;;;;;;6.90;2.22;;;;;;;17.20;81.69;101510.19;5083395;28;20052;-85
2021/08/22 09:28:07;;;;;;;3.92;2.20;;;;;;;17.16;82.10;101509.31;5081061;28;20048;-87
2021/08/22 09:31:12;;;;;;;5.43;2.60;;;;;;;17.29;82.11;101515.56;5072684;28;20067;-86
2021/08/22 09:34:20;;;;;;;2.78;2.15;;;;;;;17.91;81.68;101509.44;5073331;28;20043;-94
2021/08/22 09:37:09;;;;;;;3.15;1.88;;;;;;;18.14;81.75;101509.38;5065574;28;20048;-96
2021/08/22 09:40:14;;;;;;;7.38;2.53;;;;;;;18.23;79.73;101523.94;5055655;28;20045;-85
2021/08/22 09:42:59;;;;;;;2.40;2.15;;;;;;;18.20;80.67;101530.31;5064805;28;20037;-86
2021/08/22 09:46:00;;;;;;;4.47;1.98;;;;;;;18.10;80.01;101530.94;5072577;28;20048;-84
2021/08/22 09:49:05;;;;;;;4.03;2.55;;;;;;;18.05;80.09;101531.28;5072553;28;20044;-84
2021/08/22 09:52:09;;;;;;;3.00;2.53;;;;;;;18.06;79.99;101530.06;5072103;28;20066;-85
2021/08/22 09:54:42;;;;;;;3.70;2.45;;;;;;;18.07;80.04;101537.31;5054910;28;20048;-85
2021/08/22 09:57:40;;;;;;;3.97;2.55;;;;;;;18.06;80.07;101544.09;5072450;28;20055;-85
2021/08/22 10:00:45;;;;;;;3.30;2.45;;;;;;;18.05;79.79;101545.28;5072287;28;20044;-87
2021/08/22 10:03:23;;;;;;;3.15;2.38;;;;;;;18.06;79.85;101538.47;5042153;28;20507;-85
2021/08/22 10:06:09;;;;;;;3.00;2.22;;;;;;;18.01;79.39;101541.59;5054703;28;20044;-86
2021/08/22 10:09:11;;;;;;;4.15;2.75;;;;;;;17.97;78.87;101543.56;5072042;28;20082;-84
2021/08/22 10:11:41;;;;;;;2.42;2.22;;;;;;;17.94;79.44;101547.09;5071917;28;20036;-85
2021/08/22 10:14:20;;;;;;;4.30;2.70;;;;;;;17.92;79.74;101549.47;5071880;28;20048;-86
2021/08/22 10:16:49;;;;;;;8.10;2.42;;;;;;;18.02;79.68;101546.84;5071500;28;20047;-85
2021/08/22 10:19:22;;;;;;;3.78;2.55;;;;;;;18.14;79.70;101562.63;5071619;28;20155;-85
2021/08/22 10:22:17;;;;;;;8.38;3.03;;;;;;;18.27;78.01;101558.44;5069599;28;20503;-86
2021/08/22 10:24:57;;;;;;;5.50;3.15;;;;;;;18.36;79.05;101556.16;5029942;28;20571;-87
2021/08/22 10:27:30;;;;;;;4.57;2.83;;;;;;;18.52;78.63;101565.25;5057451;28;20472;-87
2021/08/22 10:30:02;;;;;;;6.60;3.60;;;;;;;18.69;78.78;101573.09;5063751;28;20054;-81
2021/08/22 10:32:30;;;;;;;5.57;4.05;;;;;;;18.81;78.26;101567.25;5070459;28;20062;-86
2021/08/22 10:35:13;;;;;;;7.32;3.55;;;;;;;18.95;77.70;101565.81;5054299;28;20048;-86
2021/08/22 10:37:44;;;;;;;3.40;2.97;;;;;;;19.16;77.19;101566.06;5065339;28;20036;-87
2021/08/22 10:40:23;;;;;;;3.63;2.80;;;;;;;19.31;77.07;101570.63;5067891;28;20613;-84
2021/08/22 10:43:10;;;;;;;6.63;3.13;;;;;;;19.31;76.18;101570.63;5052613;28;20301;-86
2021/08/22 10:45:40;;;;;;;7.22;3.10;;;;;;;19.55;76.66;101572.94;5050131;28;20126;-85
2021/08/22 10:48:11;;;;;;;2.75;2.53;;;;;;;20.29;75.81;101561.53;5068022;28;20076;-87
2021/08/22 10:50:56;;;;;;;3.30;2.60;;;;;;;21.06;73.13;101578.03;5049894;28;20044;-86
2021/08/22 10:53:24;;;;;;;4.38;2.70;;;;;;;21.20;73.61;101569.66;5049111;28;20094;-85
2021/08/22 10:55:51;;;;;;;7.25;3.63;;;;;;;21.14;72.50;101574.88;5033210;28;20055;-88
2021/08/22 10:58:17;;;;;;;6.05;2.83;;;;;;;21.00;72.52;101577.59;5050144;28;20139;-87
2021/08/22 11:00:44;;;;;;;5.47;3.13;;;;;;;20.82;72.19;101573.91;5028843;28;20036;-85
2021/08/22 11:03:22;;;;;;;6.72;3.10;;;;;;;20.68;70.94;101573.81;5050071;28;20047;-87
2021/08/22 11:05:49;;;;;;;7.05;3.15;;;;;;;20.48;71.77;101587.38;5049454;28;20094;-88
2021/08/22 11:08:18;;;;;;;5.53;3.75;;;;;;;20.32;71.97;101588.88;5049470;28;20044;-86
2021/08/22 11:11:05;;;;;;;5.35;3.10;;;;;;;20.21;70.67;101582.31;5067282;28;20119;-88
2021/08/22 11:13:37;;;;;;;5.50;3.47;;;;;;;20.15;71.96;101589.53;5067306;28;20124;-86
2021/08/22 11:16:06;;;;;;;3.13;2.60;;;;;;;20.15;71.77;101589.53;5063205;28;20191;-87
2021/08/22 11:18:33;;;;;;;6.53;3.35;;;;;;;20.10;71.81;101587.06;5046600;28;20063;-83
2021/08/22 11:21:01;;;;;;;5.63;3.38;;;;;;;20.05;71.86;101585.44;5025621;28;20080;-87
2021/08/22 11:23:28;;;;;;;5.93;3.88;;;;;;;20.04;71.78;101593.03;5036766;28;20043;-88
2021/08/22 11:26:02;;;;;;;9.73;6.80;;;;;;;20.09;71.72;101593.91;5037424;28;20123;-87
2021/08/22 11:28:33;;;;;;;5.45;3.55;;;;;;;20.12;71.79;101604.38;5056178;28;20086;-87
2021/08/22 11:31:00;;;;;;;6.45;3.45;;;;;;;20.22;71.69;101593.19;5026948;28;20040;-88
2021/08/22 11:33:28;;;;;;;3.72;3.35;;;;;;;20.31;71.73;101599.31;5050776;28;20489;-88
2021/08/22 11:35:55;;;;;;;3.15;2.78;;;;;;;20.40;71.79;101598.97;5021566;28;20037;-87
2021/08/22 11:38:22;;;;;;;4.55;3.60;;;;;;;20.44;71.26;101594.97;5012524;28;20131;-87